Time;durP1;ratioP1;P1;durP2;ratioP2;P2;SDS_P1;SDS_P2;PMS_P1;PMS_P2;Temp;Humidity;BMP_temperature;BMP_pressure;BME280_temperature;BME280_humidity;BME280_pressure;Samples;Min_cycle;Max_cycle;Signal;HPM_P1;HPM_P2
2022/04/18 00:00:39;;;;;;;;;;;;;;;3.58;57.99;100038.88;4863937;29;19932;-70
2022/04/18 00:03:08;;;;;;;;;;;;;;;3.39;57.49;100033.22;4864257;29;20429;-69
2022/04/18 00:05:37;;;;;;;;;;;;;;;3.25;57.91;100038.63;4864252;29;19983;-69
2022/04/18 00:08:06;;;;;;;;;;;;;;;3.14;58.36;100024.81;4864221;29;19963;-69
2022/04/18 00:10:35;;;;;;;;;;;;;;;3.19;59.02;100024.13;4847305;29;19932;-69
2022/04/18 00:13:04;;;;;;;;;;;;;;;3.21;58.49;100024.19;4864060;29;19940;-69
2022/04/18 00:15:32;;;;;;;;;;;;;;;3.21;59.28;100016.63;4863993;29;19949;-69
2022/04/18 00:18:02;;;;;;;;;;;;;;;3.19;58.91;100020.78;4863653;29;20034;-70
2022/04/18 00:20:31;;;;;;;;;;;;;;;3.10;59.13;100017.91;4863616;29;19923;-69
2022/04/18 00:22:59;;;;;;;;;;;;;;;3.07;59.30;100015.31;4864002;29;19924;-69
2022/04/18 00:25:28;;;;;;;;;;;;;;;3.01;59.58;100015.09;4863632;29;19924;-69
2022/04/18 00:27:57;;;;;;;;;;;;;;;2.89;60.11;100009.63;4863461;29;19934;-70
2022/04/18 00:30:25;;;;;;;;;;;;;;;2.85;60.53;100010.31;4863517;29;19981;-69
2022/04/18 00:32:54;;;;;;;;;;;;;;;2.86;59.96;100004.47;4863358;29;19928;-69
2022/04/18 00:35:24;;;;;;;;;;;;;;;2.79;60.86;100005.06;4863674;29;20010;-69
2022/04/18 00:37:53;;;;;;;;;;;;;;;2.72;60.89;99999.81;4863711;29;19928;-71
2022/04/18 00:40:21;;;;;;;;;;;;;;;2.70;60.91;99996.38;4863252;29;19924;-69
2022/04/18 00:42:50;;;;;;;;;;;;;;;2.73;60.96;99996.47;4846923;29;19980;-69
2022/04/18 00:45:19;;;;;;;;;;;;;;;2.86;61.10;99991.88;4846734;29;19931;-69
2022/04/18 00:47:47;;;;;;;;;;;;;;;3.06;59.88;99988.38;4846992;29;19928;-69
2022/04/18 00:50:16;;;;;;;;;;;;;;;3.16;60.22;99991.28;4863098;29;19924;-69
2022/04/18 00:52:46;;;;;;;;;;;;;;;3.19;59.81;99993.88;4863018;29;19924;-69
2022/04/18 00:55:15;;;;;;;;;;;;;;;3.17;60.10;99989.56;4863078;29;19923;-69
2022/04/18 00:57:45;;;;;;;;;;;;;;;3.17;60.17;99982.00;4846596;29;20390;-69
2022/04/18 01:00:14;;;;;;;;;;;;;;;3.09;59.70;99991.00;4863312;29;19923;-69
2022/04/18 01:02:43;;;;;;;;;;;;;;;3.20;59.12;99982.13;4846397;29;20018;-69
2022/04/18 01:05:12;;;;;;;;;;;;;;;3.27;59.07;99981.50;4846356;29;20306;-70
2022/04/18 01:07:41;;;;;;;;;;;;;;;3.24;59.01;99973.84;4846651;29;19977;-69
2022/04/18 01:10:12;;;;;;;;;;;;;;;3.25;58.94;99978.09;4863389;29;19924;-69
2022/04/18 01:12:41;;;;;;;;;;;;;;;3.14;59.28;99969.34;4846208;29;19930;-69
2022/04/18 01:15:21;;;;;;;;;;;;;;;3.13;60.13;99965.94;4862667;29;19930;-69
2022/04/18 01:18:05;;;;;;;;;;;;;;;3.18;59.51;99966.09;4846149;29;19931;-69
2022/04/18 01:20:55;;;;;;;;;;;;;;;3.27;59.37;99972.28;4815884;29;19931;-70
2022/04/18 01:23:50;;;;;;;;;;;;;;;3.27;59.29;99957.16;4833962;29;20284;-70
2022/04/18 01:29:06;;;;;;;;;;;;;;;3.07;60.00;99957.31;4846036;29;19924;-69
2022/04/18 01:31:39;;;;;;;;;;;;;;;2.97;59.89;99955.31;4846291;29;19967;-69
2022/04/18 01:34:09;;;;;;;;;;;;;;;3.00;59.39;99952.88;4846039;29;19927;-69
2022/04/18 01:36:39;;;;;;;;;;;;;;;2.88;60.46;99952.47;4846133;29;20371;-69
2022/04/18 01:39:11;;;;;;;;;;;;;;;2.75;60.76;99947.81;4845711;29;19924;-69
2022/04/18 01:41:40;;;;;;;;;;;;;;;2.67;60.93;99942.50;4845923;29;20094;-69
2022/04/18 01:44:10;;;;;;;;;;;;;;;2.65;60.92;99941.59;4846359;29;19924;-69
2022/04/18 01:46:39;;;;;;;;;;;;;;;2.57;61.31;99948.00;4845901;29;20283;-69
2022/04/18 01:49:08;;;;;;;;;;;;;;;2.46;60.81;99935.06;4862405;29;19954;-69
2022/04/18 01:51:39;;;;;;;;;;;;;;;2.41;61.43;99929.00;4845609;29;19932;-69
2022/04/18 01:54:09;;;;;;;;;;;;;;;2.32;61.30;99936.25;4845593;29;20023;-69
2022/04/18 01:56:38;;;;;;;;;;;;;;;2.27;62.25;99932.69;4862227;29;19946;-69
2022/04/18 01:59:07;;;;;;;;;;;;;;;2.25;61.53;99929.28;4861967;29;20011;-69
2022/04/18 02:01:36;;;;;;;;;;;;;;;2.13;62.30;99923.78;4845462;29;19967;-69
2022/04/18 02:04:04;;;;;;;;;;;;;;;1.98;62.22;99916.53;4861933;29;19924;-69
2022/04/18 02:06:33;;;;;;;;;;;;;;;1.96;62.50;99914.75;4845315;29;20018;-69
2022/04/18 02:09:03;;;;;;;;;;;;;;;1.99;62.46;99914.88;4861844;29;19924;-69
2022/04/18 02:11:31;;;;;;;;;;;;;;;2.05;62.93;99910.06;4844945;29;19924;-69
2022/04/18 02:14:00;;;;;;;;;;;;;;;2.22;62.27;99914.03;4845604;29;19927;-69
2022/04/18 02:16:31;;;;;;;;;;;;;;;2.31;61.76;99908.47;4845244;29;19978;-69
2022/04/18 02:19:02;;;;;;;;;;;;;;;2.34;61.96;99906.06;4845269;29;19925;-69
2022/04/18 02:21:31;;;;;;;;;;;;;;;2.36;62.18;99907.84;4845341;29;19928;-69
2022/04/18 02:23:59;;;;;;;;;;;;;;;2.45;61.74;99903.13;4845482;29;20345;-69
2022/04/18 02:26:30;;;;;;;;;;;;;;;2.49;61.70;99910.00;4861888;29;19927;-69
2022/04/18 02:29:08;;;;;;;;;;;;;;;2.61;60.54;99904.50;4845507;29;19924;-69
2022/04/18 02:32:47;;;;;;;;;;;;;;;2.60;61.35;99898.63;4830241;29;19924;-69
2022/04/18 02:34:27;;;;;;;;;;;;;;;2.46;60.67;99894.78;4844881;29;19974;-69
2022/04/18 02:36:57;;;;;;;;;;;;;;;2.43;61.05;99893.78;4844856;29;19924;-69
2022/04/18 02:39:31;;;;;;;;;;;;;;;2.42;61.41;99892.97;4845377;29;20023;-69
2022/04/18 02:42:01;;;;;;;;;;;;;;;2.32;61.03;99890.91;4861407;29;20268;-69
2022/04/18 02:44:33;;;;;;;;;;;;;;;2.31;61.50;99889.19;4845351;29;20286;-69
2022/04/18 02:47:02;;;;;;;;;;;;;;;2.36;62.02;99887.69;4845241;29;19924;-69
2022/04/18 02:49:31;;;;;;;;;;;;;;;2.35;62.01;99885.97;4845323;29;20034;-69
2022/04/18 02:52:01;;;;;;;;;;;;;;;2.32;62.19;99885.00;4845246;29;20450;-68
2022/04/18 02:54:30;;;;;;;;;;;;;;;2.29;61.89;99880.72;4845450;29;19924;-68
2022/04/18 02:57:01;;;;;;;;;;;;;;;2.24;62.21;99877.19;4861334;29;20006;-68
2022/04/18 02:59:30;;;;;;;;;;;;;;;2.20;62.43;99875.38;4844933;29;19928;-69
2022/04/18 03:01:58;;;;;;;;;;;;;;;2.09;62.38;99881.66;4861257;29;19981;-68
2022/04/18 03:04:28;;;;;;;;;;;;;;;1.98;61.97;99873.75;4861341;29;19932;-68
2022/04/18 03:06:57;;;;;;;;;;;;;;;1.97;62.37;99871.16;4861558;29;20294;-68
2022/04/18 03:09:25;;;;;;;;;;;;;;;2.04;62.11;99868.06;4844759;29;19931;-68
2022/04/18 03:11:54;;;;;;;;;;;;;;;2.10;62.62;99873.31;4844709;29;19959;-68
2022/04/18 03:14:24;;;;;;;;;;;;;;;2.12;62.02;99871.72;4829856;29;19932;-68
2022/04/18 03:17:00;;;;;;;;;;;;;;;2.07;62.15;99873.22;4861230;29;19980;-68
2022/04/18 03:19:30;;;;;;;;;;;;;;;2.09;61.98;99869.09;4845060;29;19932;-68
2022/04/18 03:22:00;;;;;;;;;;;;;;;2.18;62.45;99866.91;4846615;29;19972;-68
2022/04/18 03:24:33;;;;;;;;;;;;;;;2.27;62.78;99872.28;4848246;29;20382;-68
2022/04/18 03:27:15;;;;;;;;;;;;;;;2.26;62.45;99867.16;4848164;29;20389;-68
2022/04/18 03:29:45;;;;;;;;;;;;;;;2.16;61.93;99860.94;4848643;29;20267;-68
2022/04/18 03:32:21;;;;;;;;;;;;;;;2.06;62.08;99861.44;4848080;29;20378;-68
2022/04/18 03:34:50;;;;;;;;;;;;;;;1.98;62.84;99862.81;4864877;29;19924;-68
2022/04/18 03:39:57;;;;;;;;;;;;;;;1.92;62.47;99862.63;4845122;29;19963;-68
2022/04/18 03:42:30;;;;;;;;;;;;;;;1.97;62.88;99853.53;4845035;29;19977;-68
2022/04/18 03:45:13;;;;;;;;;;;;;;;2.04;62.47;99848.78;4844732;29;19980;-68
2022/04/18 03:47:41;;;;;;;;;;;;;;;2.01;62.02;99847.84;4846516;29;19981;-68
2022/04/18 03:50:10;;;;;;;;;;;;;;;1.98;62.94;99843.56;4845982;29;20363;-68
2022/04/18 03:52:43;;;;;;;;;;;;;;;1.98;62.95;99833.50;4844616;29;19924;-68
2022/04/18 03:55:27;;;;;;;;;;;;;;;1.96;62.19;99836.75;4844608;29;19924;-67
2022/04/18 03:57:59;;;;;;;;;;;;;;;1.96;62.64;99834.22;4844535;29;19980;-68
2022/04/18 04:00:29;;;;;;;;;;;;;;;1.96;62.53;99831.72;4844650;29;19924;-68
2022/04/18 04:02:59;;;;;;;;;;;;;;;1.99;62.92;99829.31;4829522;29;19928;-68
2022/04/18 04:05:36;;;;;;;;;;;;;;;2.03;62.84;99832.00;4829090;29;20387;-68
2022/04/18 04:08:06;;;;;;;;;;;;;;;2.00;62.82;99831.00;4844345;29;20363;-68
2022/04/18 04:10:36;;;;;;;;;;;;;;;1.99;62.54;99829.31;4844358;29;20436;-68
2022/04/18 04:13:07;;;;;;;;;;;;;;;1.99;62.97;99826.81;4844320;29;19976;-68
2022/04/18 04:15:49;;;;;;;;;;;;;;;2.06;62.77;99828.72;4845728;29;19931;-68
2022/04/18 04:18:23;;;;;;;;;;;;;;;2.17;62.08;99821.53;4844560;29;19984;-68
2022/04/18 04:20:55;;;;;;;;;;;;;;;2.30;61.61;99822.03;4844355;29;20379;-68
2022/04/18 04:23:24;;;;;;;;;;;;;;;2.32;62.13;99820.41;4843563;29;20306;-67
2022/04/18 04:26:21;;;;;;;;;;;;;;;2.32;62.11;99817.91;4845112;29;20028;-67
2022/04/18 04:28:51;;;;;;;;;;;;;;;2.17;62.08;99819.88;4843962;29;19928;-67
2022/04/18 04:31:32;;;;;;;;;;;;;;;2.11;62.70;99817.16;4845077;29;19925;-67
2022/04/18 04:34:01;;;;;;;;;;;;;;;2.18;62.13;99815.72;4843727;29;19925;-68
2022/04/18 04:36:33;;;;;;;;;;;;;;;2.26;61.67;99817.66;4843894;29;19925;-68
2022/04/18 04:39:03;;;;;;;;;;;;;;;2.27;61.43;99819.41;4843903;29;20007;-68
2022/04/18 04:41:39;;;;;;;;;;;;;;;2.26;61.61;99812.63;4843808;29;20303;-68
2022/04/18 04:44:08;;;;;;;;;;;;;;;2.22;61.75;99813.34;4843673;29;20024;-68
2022/04/18 04:46:48;;;;;;;;;;;;;;;2.14;62.07;99807.19;4844847;29;19924;-67
2022/04/18 04:49:19;;;;;;;;;;;;;;;2.10;62.00;99805.38;4843650;29;19924;-67
2022/04/18 04:51:59;;;;;;;;;;;;;;;2.10;62.32;99807.03;4844950;29;19925;-68
2022/04/18 04:54:28;;;;;;;;;;;;;;;2.18;62.81;99801.47;4843491;29;20434;-67
2022/04/18 04:56:56;;;;;;;;;;;;;;;2.17;62.41;99807.28;4844586;29;19968;-67
2022/04/18 04:59:33;;;;;;;;;;;;;;;2.13;62.77;99802.97;4843839;29;19924;-67
2022/04/18 05:02:06;;;;;;;;;;;;;;;2.14;63.07;99802.16;4843713;29;19925;-67
2022/04/18 05:04:35;;;;;;;;;;;;;;;2.30;63.16;99799.38;4844429;29;20447;-67
2022/04/18 05:07:07;;;;;;;;;;;;;;;2.40;62.70;99798.84;4843588;29;19932;-67
2022/04/18 05:09:55;;;;;;;;;;;;;;;2.61;62.27;99797.06;4843258;29;19967;-67
2022/04/18 05:12:25;;;;;;;;;;;;;;;2.65;61.40;99796.34;4844265;29;19924;-67
2022/04/18 05:14:54;;;;;;;;;;;;;;;2.61;61.61;99794.53;4843435;29;20352;-67
2022/04/18 05:17:34;;;;;;;;;;;;;;;2.67;61.46;99794.72;4843768;29;19931;-68
2022/04/18 05:20:11;;;;;;;;;;;;;;;2.78;60.65;99796.72;4843343;29;20357;-67
2022/04/18 05:22:43;;;;;;;;;;;;;;;2.89;61.03;99791.22;4843031;29;19924;-68
2022/04/18 05:25:16;;;;;;;;;;;;;;;2.96;60.49;99793.13;4842951;29;20019;-68
2022/04/18 05:27:46;;;;;;;;;;;;;;;3.09;59.86;99790.19;4843070;29;19935;-68
2022/04/18 05:30:39;;;;;;;;;;;;;;;3.20;59.67;99787.97;4838691;29;19924;-68
2022/04/18 05:33:10;;;;;;;;;;;;;;;3.36;59.53;99790.97;4842818;29;19924;-68
2022/04/18 05:35:58;;;;;;;;;;;;;;;3.59;59.44;99789.13;4844077;29;20023;-69
2022/04/18 05:38:34;;;;;;;;;;;;;;;3.78;59.65;99790.50;4842583;29;20379;-69
2022/04/18 05:41:10;;;;;;;;;;;;;;;3.90;59.55;99796.75;4842588;29;19924;-69
2022/04/18 05:43:40;;;;;;;;;;;;;;;3.99;59.21;99791.94;4842587;29;19940;-69
2022/04/18 05:46:10;;;;;;;;;;;;;;;4.12;58.80;99797.31;4841872;29;20363;-69
2022/04/18 05:48:41;;;;;;;;;;;;;;;4.29;58.60;99796.09;4842826;29;20389;-69
2022/04/18 05:51:10;;;;;;;;;;;;;;;4.42;57.62;99788.00;4842598;29;20003;-69
2022/04/18 05:53:40;;;;;;;;;;;;;;;4.47;56.71;99791.50;4842747;29;20283;-69
2022/04/18 05:56:09;;;;;;;;;;;;;;;4.42;57.18;99788.00;4843971;29;19924;-69
2022/04/18 05:58:58;;;;;;;;;;;;;;;4.58;57.56;99775.78;4843148;29;19924;-69
2022/04/18 06:01:37;;;;;;;;;;;;;;;4.62;57.07;99772.53;4844104;29;19924;-69
2022/04/18 06:04:14;;;;;;;;;;;;;;;4.74;57.02;99772.81;4842304;29;19931;-70
2022/04/18 06:06:50;;;;;;;;;;;;;;;4.98;57.60;99770.00;4842614;29;20379;-69
2022/04/18 06:09:20;;;;;;;;;;;;;;;5.14;57.14;99779.63;4842548;29;20003;-70
2022/04/18 06:11:48;;;;;;;;;;;;;;;5.27;56.58;99771.53;4843404;29;20444;-69
2022/04/18 06:14:20;;;;;;;;;;;;;;;5.31;56.49;99773.28;4842593;29;20359;-70
2022/04/18 06:16:50;;;;;;;;;;;;;;;5.42;55.99;99771.81;4842193;29;19924;-70
2022/04/18 06:19:23;;;;;;;;;;;;;;;5.60;56.37;99765.44;4843662;29;20380;-69
2022/04/18 06:21:52;;;;;;;;;;;;;;;5.72;55.77;99775.81;4842179;29;19924;-69
2022/04/18 06:24:22;;;;;;;;;;;;;;;5.65;55.47;99773.97;4842222;29;19924;-69
2022/04/18 06:27:00;;;;;;;;;;;;;;;5.78;55.07;99768.34;4843261;29;20050;-69
2022/04/18 06:29:33;;;;;;;;;;;;;;;5.94;54.83;99757.72;4841993;29;19964;-69
2022/04/18 06:32:03;;;;;;;;;;;;;;;6.10;54.56;99754.63;4842077;29;19925;-69
2022/04/18 06:34:33;;;;;;;;;;;;;;;6.19;54.03;99749.72;4841863;29;19963;-69
2022/04/18 06:37:10;;;;;;;;;;;;;;;6.35;53.85;99753.38;4844000;29;20272;-70
2022/04/18 06:39:57;;;;;;;;;;;;;;;6.52;53.32;99750.31;4845418;29;19932;-69
2022/04/18 06:42:38;;;;;;;;;;;;;;;6.73;53.38;99742.19;4844944;29;19976;-71
2022/04/18 06:45:15;;;;;;;;;;;;;;;6.91;53.28;99741.63;4845394;29;19946;-71
2022/04/18 06:47:44;;;;;;;;;;;;;;;7.00;52.75;99739.22;4844929;29;19924;-70
2022/04/18 06:50:14;;;;;;;;;;;;;;;7.08;51.88;99737.66;4861747;29;19928;-70
2022/04/18 06:52:54;;;;;;;;;;;;;;;7.28;52.05;99728.59;4845195;29;19924;-70
2022/04/18 06:58:17;;;;;;;;;;;;;;;7.63;51.75;99729.06;4848353;29;19927;-71
2022/04/18 07:00:46;;;;;;;;;;;;;;;7.94;52.20;99726.00;4848954;29;19924;-71
2022/04/18 07:03:16;;;;;;;;;;;;;;;8.13;50.90;99719.41;4848587;29;19928;-71
2022/04/18 07:05:48;;;;;;;;;;;;;;;8.43;50.11;99715.47;4848570;29;19924;-71
2022/04/18 07:08:17;;;;;;;;;;;;;;;8.63;49.64;99719.06;4848425;29;19928;-69
2022/04/18 07:10:47;;;;;;;;;;;;;;;8.90;49.18;99715.81;4849095;29;20434;-71
2022/04/18 07:13:15;;;;;;;;;;;;;;;9.04;48.03;99719.31;4848595;29;20287;-72
2022/04/18 07:15:47;;;;;;;;;;;;;;;9.17;47.23;99710.91;4848589;29;20367;-72
2022/04/18 07:18:18;;;;;;;;;;;;;;;9.17;46.79;99715.13;4848356;29;19935;-71
2022/04/18 07:20:48;;;;;;;;;;;;;;;9.27;46.55;99715.19;4848160;29;19924;-71
2022/04/18 07:23:18;;;;;;;;;;;;;;;9.35;46.23;99711.00;4848288;29;19928;-71
2022/04/18 07:25:55;;;;;;;;;;;;;;;9.35;46.05;99711.00;4864912;29;19923;-71
2022/04/18 07:28:31;;;;;;;;;;;;;;;9.50;45.61;99709.38;4848189;29;19924;-69
2022/04/18 07:31:01;;;;;;;;;;;;;;;9.70;45.24;99713.66;4832996;29;19952;-70
2022/04/18 07:33:30;;;;;;;;;;;;;;;9.80;44.21;99696.72;4848294;29;19924;-69
2022/04/18 07:36:01;;;;;;;;;;;;;;;9.82;43.75;99703.50;4848262;29;19924;-70
2022/04/18 07:41:08;;;;;;;;;;;;;;;9.92;42.86;99704.38;4846283;29;20357;-69
2022/04/18 07:43:42;;;;;;;;;;;;;;;10.09;43.48;99702.72;4845146;29;20375;-70
2022/04/18 07:46:13;;;;;;;;;;;;;;;10.14;42.69;99701.06;4844674;29;20451;-69
2022/04/18 07:48:42;;;;;;;;;;;;;;;10.20;42.31;99693.41;4844656;29;19924;-69
2022/04/18 07:53:50;;;;;;;;;;;;;;;10.45;42.40;99682.38;4844915;29;19992;-69
2022/04/18 07:56:21;;;;;;;;;;;;;;;10.65;42.22;99687.47;4844768;29;19925;-70
2022/04/18 07:58:50;;;;;;;;;;;;;;;10.90;41.73;99683.16;4844461;29;20035;-70
2022/04/18 08:01:27;;;;;;;;;;;;;;;11.12;42.08;99677.16;4844827;29;19973;-69
2022/04/18 08:04:00;;;;;;;;;;;;;;;11.20;41.49;99680.53;4844388;29;20403;-69
2022/04/18 08:06:32;;;;;;;;;;;;;;;11.34;41.15;99666.88;4845503;29;19925;-70
2022/04/18 08:09:22;;;;;;;;;;;;;;;11.36;40.15;99669.41;4843852;29;19967;-70
2022/04/18 08:11:51;;;;;;;;;;;;;;;11.40;39.93;99661.72;4844159;29;20280;-70
2022/04/18 08:14:27;;;;;;;;;;;;;;;11.46;39.44;99663.41;4844303;29;19924;-70
2022/04/18 08:17:06;;;;;;;;;;;;;;;11.54;39.41;99653.97;4844187;29;20031;-70
2022/04/18 08:19:39;;;;;;;;;;;;;;;11.75;40.00;99646.25;4845640;29;19932;-70
2022/04/18 08:22:10;;;;;;;;;;;;;;;12.04;40.24;99646.03;4844049;29;19971;-70
2022/04/18 08:24:59;;;;;;;;;;;;;;;12.10;38.92;99649.41;4825600;29;19925;-70
2022/04/18 08:27:48;;;;;;;;;;;;;;;12.05;38.53;99640.03;4845407;29;19985;-70
2022/04/18 08:30:25;;;;;;;;;;;;;;;12.24;38.62;99633.09;4843958;29;19924;-70
2022/04/18 08:33:02;;;;;;;;;;;;;;;12.25;37.89;99627.97;4843972;29;20383;-70
2022/04/18 08:35:32;;;;;;;;;;;;;;;12.33;37.36;99625.34;4844150;29;19971;-70
2022/04/18 08:38:02;;;;;;;;;;;;;;;12.34;37.72;99627.03;4853790;29;19931;-69
2022/04/18 08:40:31;;;;;;;;;;;;;;;12.47;37.57;99628.63;4863708;29;20394;-70
2022/04/18 08:43:01;;;;;;;;;;;;;;;12.46;37.08;99626.91;4847210;29;19924;-69
2022/04/18 08:45:32;;;;;;;;;;;;;;;12.44;36.91;99628.63;4847050;29;20027;-70
2022/04/18 08:53:25;;;;;;;;;;;;;;;12.69;34.85;99615.56;4863208;29;20286;-70
2022/04/18 08:55:54;;;;;;;;;;;;;;;12.72;33.90;99609.56;4863433;29;19938;-69
2022/04/18 08:58:30;;;;;;;;;;;;;;;12.65;34.32;99613.06;4846622;29;19924;-69
2022/04/18 09:01:00;;;;;;;;;;;;;;;12.78;35.32;99601.84;4846457;29;19964;-71
2022/04/18 09:03:44;;;;;;;;;;;;;;;12.78;34.70;99609.53;4862953;29;19953;-71
2022/04/18 09:06:14;;;;;;;;;;;;;;;12.57;33.56;99609.75;4846385;29;19924;-71
2022/04/18 09:08:57;;;;;;;;;;;;;;;12.15;33.10;99603.31;4846764;29;19970;-71
2022/04/18 09:11:32;;;;;;;;;;;;;;;11.84;33.57;99602.69;4846646;29;19924;-71
2022/04/18 09:14:06;;;;;;;;;;;;;;;11.65;33.79;99600.25;4831406;29;19924;-70
2022/04/18 09:16:35;;;;;;;;;;;;;;;11.85;34.73;99599.25;4831944;29;19931;-71
2022/04/18 09:19:09;;;;;;;;;;;;;;;12.20;33.77;99593.03;4846088;29;19966;-71
2022/04/18 09:21:43;;;;;;;;;;;;;;;12.35;32.03;99587.78;4846161;29;19976;-71
2022/04/18 09:24:22;;;;;;;;;;;;;;;12.30;31.92;99589.53;4862910;29;19971;-71
2022/04/18 09:27:07;;;;;;;;;;;;;;;12.45;31.67;99579.97;4830969;29;20014;-71
2022/04/18 09:29:38;;;;;;;;;;;;;;;12.63;31.61;99581.50;4846029;29;20015;-70
2022/04/18 09:32:12;;;;;;;;;;;;;;;12.32;31.31;99582.69;4846193;29;19924;-70
2022/04/18 09:35:05;;;;;;;;;;;;;;;12.05;31.96;99586.31;4862328;29;19947;-70
2022/04/18 09:37:40;;;;;;;;;;;;;;;12.10;32.27;99580.31;4845634;29;19951;-71
2022/04/18 09:40:10;;;;;;;;;;;;;;;12.35;32.41;99582.66;4845843;29;20015;-71
2022/04/18 09:42:40;;;;;;;;;;;;;;;12.69;31.63;99573.78;4845696;29;19928;-71
2022/04/18 09:45:22;;;;;;;;;;;;;;;13.22;32.30;99574.00;4845737;29;19923;-71
2022/04/18 09:47:55;;;;;;;;;;;;;;;13.30;30.90;99572.19;4862476;29;19924;-71
2022/04/18 09:53:06;;;;;;;;;;;;;;;12.66;30.52;99569.53;4845741;29;19924;-71
2022/04/18 09:55:34;;;;;;;;;;;;;;;12.34;30.49;99570.72;4845764;29;19928;-71
2022/04/18 09:58:05;;;;;;;;;;;;;;;12.19;30.82;99565.75;4846089;29;19930;-71
2022/04/18 10:00:54;;;;;;;;;;;;;;;12.19;31.43;99566.59;4861887;29;20018;-71
2022/04/18 10:03:22;;;;;;;;;;;;;;;12.14;31.01;99558.09;4861887;29;19924;-71
2022/04/18 10:05:52;;;;;;;;;;;;;;;12.22;31.45;99565.72;4862458;29;19928;-70
2022/04/18 10:08:20;;;;;;;;;;;;;;;12.15;31.22;99562.38;4861843;29;19931;-70
2022/04/18 10:10:49;;;;;;;;;;;;;;;12.17;32.04;99567.47;4845605;29;19928;-71
2022/04/18 10:13:21;;;;;;;;;;;;;;;12.22;32.50;99560.59;4861753;29;19931;-69
2022/04/18 10:15:51;;;;;;;;;;;;;;;12.29;32.80;99557.97;4861807;29;20398;-70
2022/04/18 10:18:20;;;;;;;;;;;;;;;12.25;31.63;99561.44;4861980;29;19970;-70
2022/04/18 10:20:58;;;;;;;;;;;;;;;12.45;31.50;99553.56;4861872;29;20083;-71
2022/04/18 10:23:37;;;;;;;;;;;;;;;12.62;32.14;99551.66;4862127;29;19924;-69
2022/04/18 10:26:15;;;;;;;;;;;;;;;12.50;31.43;99551.81;4861665;29;19924;-70
2022/04/18 10:28:46;;;;;;;;;;;;;;;12.50;31.51;99551.81;4861560;29;19930;-71
2022/04/18 10:31:18;;;;;;;;;;;;;;;12.55;31.39;99544.91;4861433;29;20336;-70
2022/04/18 10:33:47;;;;;;;;;;;;;;;12.69;30.99;99540.50;4862060;29;20019;-70
2022/04/18 10:36:25;;;;;;;;;;;;;;;13.11;30.92;99537.41;4861373;29;19924;-71
2022/04/18 10:38:55;;;;;;;;;;;;;;;13.21;29.42;99539.00;4861464;29;20379;-71
2022/04/18 10:41:34;;;;;;;;;;;;;;;13.31;29.33;99535.44;4861514;29;19924;-70
2022/04/18 10:44:08;;;;;;;;;;;;;;;13.41;28.99;99525.91;4862215;29;19994;-70
2022/04/18 10:46:37;;;;;;;;;;;;;;;13.36;29.08;99531.06;4861421;29;19953;-69
2022/04/18 10:49:14;;;;;;;;;;;;;;;13.55;29.49;99533.38;4861430;29;19972;-69
2022/04/18 10:51:43;;;;;;;;;;;;;;;13.52;29.47;99523.16;4861874;29;19928;-70
2022/04/18 10:54:15;;;;;;;;;;;;;;;13.48;29.04;99531.78;4861460;29;19924;-69
2022/04/18 10:56:51;;;;;;;;;;;;;;;13.42;29.17;99538.69;4861377;29;19935;-70
2022/04/18 10:59:22;;;;;;;;;;;;;;;13.56;30.49;99527.38;4861412;29;19924;-70
2022/04/18 11:01:51;;;;;;;;;;;;;;;13.40;30.25;99545.56;4861306;29;19950;-70
2022/04/18 11:04:24;;;;;;;;;;;;;;;13.03;30.12;99544.31;4861339;29;19946;-68
2022/04/18 11:07:00;;;;;;;;;;;;;;;12.76;31.14;99544.69;4861119;29;19930;-70
2022/04/18 11:09:30;;;;;;;;;;;;;;;12.49;32.49;99542.41;4861182;29;20419;-71
2022/04/18 11:12:06;;;;;;;;;;;;;;;12.38;33.29;99544.25;4860771;29;19924;-71
2022/04/18 11:14:45;;;;;;;;;;;;;;;12.26;34.32;99552.88;4861532;29;20278;-69
2022/04/18 11:17:25;;;;;;;;;;;;;;;12.29;34.71;99552.00;4861904;29;19957;-70
2022/04/18 11:19:54;;;;;;;;;;;;;;;12.34;33.98;99542.56;4861617;29;19924;-68
2022/04/18 11:22:23;;;;;;;;;;;;;;;12.43;33.95;99547.63;4861135;29;19963;-69
2022/04/18 11:25:00;;;;;;;;;;;;;;;12.43;33.28;99550.19;4861151;29;19928;-69
2022/04/18 11:27:33;;;;;;;;;;;;;;;12.65;33.37;99543.94;4844799;29;19924;-70
2022/04/18 11:30:03;;;;;;;;;;;;;;;12.89;32.83;99541.09;4861123;29;19924;-70
2022/04/18 11:32:36;;;;;;;;;;;;;;;13.21;32.76;99533.88;4861442;29;20336;-70
2022/04/18 11:35:07;;;;;;;;;;;;;;;13.37;32.19;99525.09;4861373;29;19924;-70
2022/04/18 11:37:37;;;;;;;;;;;;;;;13.52;32.46;99524.03;4861173;29;19924;-70
2022/04/18 11:40:06;;;;;;;;;;;;;;;13.74;32.20;99524.53;4861279;29;19963;-71
2022/04/18 11:42:37;;;;;;;;;;;;;;;14.23;34.48;99525.38;4861510;29;20320;-70
2022/04/18 11:45:06;;;;;;;;;;;;;;;14.46;34.40;99522.44;4864702;29;20303;-69
2022/04/18 11:47:40;;;;;;;;;;;;;;;14.66;33.40;99510.88;4864164;29;20011;-70
2022/04/18 11:50:10;;;;;;;;;;;;;;;14.67;31.87;99507.44;4864617;29;20383;-70
2022/04/18 11:52:39;;;;;;;;;;;;;;;14.47;30.37;99503.56;4864453;29;20371;-70
2022/04/18 11:55:09;;;;;;;;;;;;;;;14.29;30.29;99507.31;4864708;29;20026;-70
2022/04/18 11:57:39;;;;;;;;;;;;;;;13.91;30.35;99507.16;4865087;29;19932;-70
2022/04/18 12:00:08;;;;;;;;;;;;;;;13.64;30.66;99505.03;4864042;29;20302;-70
2022/04/18 12:07:58;;;;;;;;;;;;;;;13.21;33.66;99498.00;4863964;29;20291;-71
2022/04/18 12:10:28;;;;;;;;;;;;;;;13.59;34.22;99494.00;4864170;29;19924;-70
2022/04/18 12:12:57;;;;;;;;;;;;;;;14.08;33.61;99485.44;4864238;29;19927;-70
2022/04/18 12:15:27;;;;;;;;;;;;;;;14.56;33.52;99488.00;4863822;29;19931;-70
2022/04/18 12:17:58;;;;;;;;;;;;;;;14.71;32.21;99475.69;4864112;29;19924;-70
2022/04/18 12:20:27;;;;;;;;;;;;;;;14.52;31.36;99474.34;4864056;29;20367;-70
2022/04/18 12:22:59;;;;;;;;;;;;;;;14.54;31.99;99475.16;4863783;29;19932;-70
2022/04/18 12:25:28;;;;;;;;;;;;;;;14.70;31.87;99471.44;4863637;29;19931;-71
2022/04/18 12:27:58;;;;;;;;;;;;;;;14.80;31.22;99466.94;4863427;29;19939;-70
2022/04/18 12:30:28;;;;;;;;;;;;;;;15.10;33.06;99457.72;4863539;29;19924;-71
2022/04/18 12:33:10;;;;;;;;;;;;;;;15.34;32.35;99459.72;4863508;29;19930;-70
2022/04/18 12:35:39;;;;;;;;;;;;;;;14.88;31.03;99451.34;4863465;29;19931;-70
2022/04/18 12:38:08;;;;;;;;;;;;;;;14.41;30.87;99442.94;4863142;29;20019;-70
2022/04/18 12:40:38;;;;;;;;;;;;;;;14.18;30.91;99455.31;4863691;29;20367;-70
2022/04/18 12:43:09;;;;;;;;;;;;;;;14.31;31.05;99456.81;4863685;29;20006;-72
2022/04/18 12:45:45;;;;;;;;;;;;;;;14.40;31.37;99446.34;4863325;29;19931;-69
2022/04/18 12:48:15;;;;;;;;;;;;;;;14.48;31.73;99441.06;4863258;29;20018;-70
2022/04/18 12:50:45;;;;;;;;;;;;;;;14.33;31.85;99444.78;4863214;29;20030;-71
2022/04/18 12:53:14;;;;;;;;;;;;;;;14.17;32.01;99438.25;4863148;29;19924;-70
2022/04/18 12:55:42;;;;;;;;;;;;;;;14.10;32.49;99439.22;4862708;29;19972;-68
2022/04/18 12:58:18;;;;;;;;;;;;;;;13.90;32.56;99428.47;4863090;29;19927;-69
2022/04/18 13:00:57;;;;;;;;;;;;;;;13.49;32.41;99430.91;4863340;29;20398;-69
2022/04/18 13:03:28;;;;;;;;;;;;;;;13.33;33.03;99420.91;4863407;29;19924;-71
2022/04/18 13:06:02;;;;;;;;;;;;;;;13.48;33.15;99429.22;4862859;29;19932;-70
2022/04/18 13:08:31;;;;;;;;;;;;;;;13.41;33.26;99431.88;4863016;29;19924;-71
2022/04/18 13:10:59;;;;;;;;;;;;;;;13.33;33.11;99414.94;4863175;29;19963;-72
2022/04/18 13:13:28;;;;;;;;;;;;;;;13.62;33.06;99422.16;4862752;29;20007;-71
2022/04/18 13:15:56;;;;;;;;;;;;;;;13.86;33.32;99414.88;4863097;29;19928;-71
2022/04/18 13:18:27;;;;;;;;;;;;;;;14.32;33.79;99407.16;4862928;29;19947;-72
2022/04/18 13:20:56;;;;;;;;;;;;;;;14.33;32.55;99402.84;4862662;29;19976;-71
2022/04/18 13:23:24;;;;;;;;;;;;;;;14.17;31.50;99406.59;4862601;29;19980;-71
2022/04/18 13:25:53;;;;;;;;;;;;;;;14.19;32.07;99408.25;4863068;29;19928;-70
2022/04/18 13:28:22;;;;;;;;;;;;;;;14.41;32.23;99393.28;4862474;29;20374;-70
2022/04/18 13:30:51;;;;;;;;;;;;;;;14.62;31.85;99396.25;4862678;29;20367;-71
2022/04/18 13:33:19;;;;;;;;;;;;;;;14.50;31.07;99386.22;4863391;29;19955;-71
2022/04/18 13:38:28;;;;;;;;;;;;;;;14.85;32.37;99382.06;4862128;29;19951;-70
2022/04/18 13:40:56;;;;;;;;;;;;;;;14.99;31.07;99385.16;4830982;29;19927;-70
2022/04/18 13:43:25;;;;;;;;;;;;;;;15.20;32.15;99382.91;4862601;29;20415;-70
2022/04/18 13:45:54;;;;;;;;;;;;;;;15.02;29.96;99373.06;4863114;29;20375;-72
2022/04/18 13:48:23;;;;;;;;;;;;;;;14.68;29.76;99375.53;4862063;29;19934;-72